Terminal Aerodrome Forecast
Issued by NWS

Home | Current Version | Previous Version | Text Only | Print | Product List | Glossary On
Versions: 1 2 3 4 5 6 7 8 9 10 11 12 13
000
FTUS44 KTSA 302300
TAFMLC
TAF
KMLC 302323Z 3100/3124 10005KT P6SM -RA BKN080
     FM310200 07005KT 4SM -RA BR BKN025
     FM310600 05005KT 3SM -RA BR OVC015
     FM311500 06005KT P6SM VCSH BKN025
     FM311800 05007KT P6SM BKN050=

USA.gov is the U.S. government's official web portal to all federal, state and local government web resources and services.